createdAt,value
2022-08-11T00:02:01.582Z,54.80
2022-08-11T00:04:39.364Z,54.90
2022-08-11T00:07:08.564Z,55.80
2022-08-11T00:09:40.110Z,55.40
2022-08-11T00:12:15.634Z,55.50
2022-08-11T00:14:46.702Z,55.40
2022-08-11T00:17:17.216Z,57.40
2022-08-11T00:20:12.931Z,57.10
2022-08-11T00:22:40.181Z,56.30
2022-08-11T00:25:15.309Z,56.60
2022-08-11T00:27:44.188Z,56.30
2022-08-11T00:30:15.605Z,57.80
2022-08-11T00:32:56.198Z,57.70
2022-08-11T00:35:51.317Z,58.30
2022-08-11T00:38:19.305Z,57.20
2022-08-11T00:40:58.394Z,57.70
2022-08-11T00:43:51.683Z,57.20
2022-08-11T00:46:36.558Z,56.50
2022-08-11T00:49:17.882Z,56.40
2022-08-11T00:52:12.793Z,56.60
2022-08-11T00:55:34.853Z,57.40
2022-08-11T00:59:01.297Z,57.70
2022-08-11T01:01:48.385Z,58.30
2022-08-11T01:04:56.124Z,58.10
2022-08-11T01:08:29.065Z,57.90
2022-08-11T01:11:55.590Z,59.20
2022-08-11T01:15:12.174Z,59.50
2022-08-11T01:18:18.829Z,60.40
2022-08-11T01:21:42.521Z,59.70
2022-08-11T01:24:58.830Z,60.10
2022-08-11T01:28:17.763Z,60.40
2022-08-11T01:31:32.347Z,61.00
2022-08-11T01:34:50.925Z,61.20
2022-08-11T01:38:22.774Z,61.10
2022-08-11T01:41:48.017Z,61.40
2022-08-11T01:45:13.349Z,60.80
2022-08-11T01:47:54.337Z,61.40
2022-08-11T01:50:39.145Z,61.90
2022-08-11T01:53:19.485Z,63.00
2022-08-11T01:56:02.702Z,62.10
2022-08-11T01:58:44.190Z,61.70
2022-08-11T02:01:22.634Z,61.30
2022-08-11T02:03:59.407Z,62.70
2022-08-11T02:06:56.122Z,63.50
2022-08-11T02:09:49.265Z,63.90
2022-08-11T02:12:42.176Z,64.40
2022-08-11T02:15:26.442Z,64.80
2022-08-11T02:18:07.222Z,65.30
2022-08-11T02:20:57.607Z,65.30
2022-08-11T02:24:06.156Z,65.80
2022-08-11T02:26:37.729Z,67.00
2022-08-11T02:29:17.796Z,68.70
2022-08-11T02:32:29.926Z,69.50
2022-08-11T02:35:11.385Z,69.30
2022-08-11T02:37:52.328Z,69.20
2022-08-11T02:40:35.817Z,69.10
2022-08-11T02:43:15.354Z,69.20
2022-08-11T02:45:55.863Z,69.00
2022-08-11T02:48:58.844Z,69.60
2022-08-11T02:51:39.038Z,69.90
2022-08-11T02:54:16.358Z,69.90
2022-08-11T02:56:58.304Z,69.70
2022-08-11T02:59:52.302Z,70.10
2022-08-11T03:02:53.371Z,70.30
2022-08-11T03:05:50.297Z,70.50
2022-08-11T03:08:51.461Z,70.80
2022-08-11T03:11:51.077Z,70.90
2022-08-11T03:14:45.882Z,71.30
2022-08-11T03:17:29.635Z,71.40
2022-08-11T03:20:24.998Z,71.40
2022-08-11T03:23:25.571Z,71.60
2022-08-11T03:26:01.949Z,70.90
2022-08-11T03:28:36.258Z,70.90
2022-08-11T03:31:25.286Z,70.80
2022-08-11T03:34:06.788Z,70.90
2022-08-11T03:37:17.151Z,71.30
2022-08-11T03:40:00.942Z,71.60
2022-08-11T03:42:41.424Z,71.40
2022-08-11T03:45:23.319Z,71.70
2022-08-11T03:48:15.372Z,71.60
2022-08-11T03:50:57.192Z,70.70
2022-08-11T03:53:49.427Z,71.00
2022-08-11T03:57:19.659Z,71.10
2022-08-11T04:00:16.188Z,70.70
2022-08-11T04:03:37.142Z,71.30
2022-08-11T04:06:38.242Z,71.10
2022-08-11T04:10:08.938Z,71.40
2022-08-11T04:13:16.721Z,71.50
2022-08-11T04:16:16.967Z,70.40
2022-08-11T04:19:31.105Z,71.90
2022-08-11T04:22:44.734Z,73.00
2022-08-11T04:25:57.444Z,73.80
2022-08-11T04:29:02.578Z,74.10
2022-08-11T04:31:44.277Z,74.70
2022-08-11T04:34:42.558Z,74.80
2022-08-11T04:37:39.207Z,73.50
2022-08-11T04:41:08.867Z,74.80
2022-08-11T04:44:31.899Z,74.70
2022-08-11T04:47:59.740Z,74.90
2022-08-11T04:51:16.341Z,74.50
2022-08-11T04:54:17.900Z,74.00
2022-08-11T04:57:07.405Z,74.00
2022-08-11T05:00:23.081Z,73.60
2022-08-11T05:03:44.684Z,74.00
2022-08-11T05:06:46.672Z,74.90
2022-08-11T05:09:41.043Z,74.40
2022-08-11T05:12:30.985Z,74.00
2022-08-11T05:15:18.623Z,73.70
2022-08-11T05:18:16.867Z,75.30
2022-08-11T05:21:09.127Z,75.60
2022-08-11T05:24:06.410Z,73.00
2022-08-11T05:27:04.133Z,71.30
2022-08-11T05:30:01.273Z,70.40
2022-08-11T05:32:58.046Z,70.40
2022-08-11T05:36:02.338Z,69.30
2022-08-11T05:38:44.302Z,69.70
2022-08-11T05:41:33.203Z,68.20
2022-08-11T05:44:22.474Z,67.30
2022-08-11T05:47:09.493Z,67.30
2022-08-11T05:49:56.757Z,66.90
2022-08-11T05:52:49.196Z,67.40
2022-08-11T05:56:02.441Z,68.10
2022-08-11T05:58:42.965Z,67.10
2022-08-11T06:01:14.310Z,66.30
2022-08-11T06:04:04.445Z,65.90
2022-08-11T06:06:33.071Z,65.30
2022-08-11T06:09:02.839Z,65.40
2022-08-11T06:11:43.955Z,65.30
2022-08-11T06:14:16.490Z,65.60
2022-08-11T06:16:48.735Z,64.90
2022-08-11T06:19:17.969Z,64.80
2022-08-11T06:21:48.031Z,63.50
2022-08-11T06:24:17.577Z,63.70
2022-08-11T06:29:54.970Z,62.90
2022-08-11T06:32:28.571Z,62.40
2022-08-11T06:35:21.000Z,61.90
2022-08-11T06:38:09.512Z,61.60
2022-08-11T06:41:05.099Z,59.00
2022-08-11T06:43:55.741Z,58.50
2022-08-11T06:46:31.391Z,58.20
2022-08-11T06:49:03.434Z,56.90
2022-08-11T06:51:32.589Z,56.60
2022-08-11T06:54:05.521Z,56.00
2022-08-11T07:00:02.130Z,55.10
2022-08-11T07:02:35.101Z,55.40
2022-08-11T07:05:09.724Z,53.90
2022-08-11T07:08:44.538Z,53.80
2022-08-11T07:11:52.673Z,53.30
2022-08-11T07:14:43.695Z,54.00
2022-08-11T07:17:19.270Z,53.20
2022-08-11T07:20:12.677Z,52.10
2022-08-11T07:23:05.400Z,52.70
2022-08-11T07:25:55.163Z,52.30
2022-08-11T07:28:44.234Z,52.10
2022-08-11T07:31:15.829Z,51.60
2022-08-11T07:34:07.921Z,51.70
2022-08-11T07:36:44.045Z,50.50
2022-08-11T07:39:18.205Z,48.90
2022-08-11T07:41:48.977Z,48.90
2022-08-11T07:44:17.459Z,48.20
2022-08-11T07:47:06.562Z,47.20
2022-08-11T07:49:56.583Z,47.50
2022-08-11T07:52:32.435Z,46.80
2022-08-11T07:55:03.581Z,47.60
2022-08-11T07:58:13.920Z,46.60
2022-08-11T08:01:09.880Z,46.30
2022-08-11T08:04:07.557Z,45.50
2022-08-11T08:06:54.716Z,45.50
2022-08-11T08:09:42.497Z,46.30
2022-08-11T08:12:29.664Z,45.40
2022-08-11T08:15:16.359Z,44.70
2022-08-11T08:18:09.476Z,44.90
2022-08-11T08:20:50.735Z,45.50
2022-08-11T08:23:33.056Z,45.90
2022-08-11T08:26:26.736Z,44.30
2022-08-11T08:28:55.885Z,45.70
2022-08-11T08:31:23.517Z,45.10
2022-08-11T08:33:52.766Z,45.00
2022-08-11T08:36:25.566Z,44.10
2022-08-11T08:38:55.220Z,44.20
2022-08-11T08:41:29.792Z,43.50
2022-08-11T08:44:21.103Z,43.40
2022-08-11T08:46:51.153Z,43.10
2022-08-11T08:49:25.086Z,42.40
2022-08-11T08:52:01.868Z,42.00
2022-08-11T08:54:47.306Z,42.00
2022-08-11T08:57:20.025Z,42.50
2022-08-11T08:59:51.495Z,41.60
2022-08-11T09:02:33.803Z,42.60
2022-08-11T09:05:05.237Z,40.30
2022-08-11T09:07:39.410Z,40.30
2022-08-11T09:10:11.434Z,40.30
2022-08-11T09:12:43.578Z,40.20
2022-08-11T09:15:14.126Z,39.70
2022-08-11T09:17:47.739Z,39.80
2022-08-11T09:20:19.943Z,39.90
2022-08-11T09:24:06.484Z,39.40
2022-08-11T09:26:16.593Z,39.30
2022-08-11T09:28:48.973Z,38.60
2022-08-11T09:31:18.318Z,38.10
2022-08-11T09:33:55.947Z,37.50
2022-08-11T09:36:42.061Z,37.00
2022-08-11T09:39:31.157Z,37.60
2022-08-11T09:42:03.417Z,37.10
2022-08-11T09:44:48.709Z,38.10
2022-08-11T09:47:24.484Z,36.10
2022-08-11T09:49:59.843Z,36.10
2022-08-11T09:52:30.424Z,35.80
2022-08-11T09:54:59.444Z,34.10
2022-08-11T09:57:45.924Z,34.60
2022-08-11T10:00:17.499Z,34.50
2022-08-11T10:02:48.734Z,34.30
2022-08-11T10:05:38.014Z,34.10
2022-08-11T10:08:09.313Z,34.20
2022-08-11T10:10:39.830Z,33.60
2022-08-11T10:14:31.391Z,33.60
2022-08-11T10:16:15.728Z,33.60
2022-08-11T10:18:53.603Z,32.90
2022-08-11T10:21:36.963Z,31.30
2022-08-11T10:24:25.438Z,32.00
2022-08-11T10:27:00.354Z,30.20
2022-08-11T10:29:52.062Z,30.00
2022-08-11T10:32:49.337Z,29.80
2022-08-11T10:35:27.907Z,31.20
2022-08-11T10:38:07.306Z,28.70
2022-08-11T10:40:40.348Z,29.10
2022-08-11T10:43:13.745Z,29.50
2022-08-11T10:46:03.736Z,29.20
2022-08-11T10:48:38.849Z,29.30
2022-08-11T10:51:13.934Z,29.30
2022-08-11T10:54:03.255Z,29.80
2022-08-11T10:56:54.199Z,28.00
2022-08-11T10:59:24.314Z,29.10
2022-08-11T11:01:54.602Z,27.90
2022-08-11T11:04:26.042Z,28.90
2022-08-11T11:07:07.263Z,27.50
2022-08-11T11:09:44.050Z,27.50
2022-08-11T11:12:34.971Z,28.10
2022-08-11T11:15:21.985Z,26.50
2022-08-11T11:17:57.051Z,27.70
2022-08-11T11:20:37.221Z,26.20
2022-08-11T11:23:12.816Z,26.70
2022-08-11T11:26:31.252Z,24.60
2022-08-11T11:29:30.000Z,24.90
2022-08-11T11:32:19.825Z,25.10
2022-08-11T11:35:34.903Z,26.00
2022-08-11T11:38:06.170Z,25.00
2022-08-11T11:40:37.569Z,24.80
2022-08-11T11:43:07.189Z,25.10
2022-08-11T11:45:35.601Z,25.90
2022-08-11T11:48:05.029Z,25.60
2022-08-11T11:50:38.306Z,25.10
2022-08-11T11:53:11.182Z,25.40
2022-08-11T11:55:39.964Z,25.10
2022-08-11T11:58:26.039Z,25.10
2022-08-11T12:01:12.648Z,26.00
2022-08-11T12:03:42.116Z,24.20
2022-08-11T12:06:15.529Z,24.70
2022-08-11T12:08:45.437Z,25.90
2022-08-11T12:11:32.211Z,25.60
2022-08-11T12:14:04.754Z,25.40
2022-08-11T12:16:42.403Z,25.40
2022-08-11T12:19:13.677Z,26.90
2022-08-11T12:22:01.318Z,25.90
2022-08-11T12:24:47.696Z,25.60
2022-08-11T12:27:24.252Z,26.70
2022-08-11T12:29:59.442Z,25.50
2022-08-11T12:32:32.214Z,26.60
2022-08-11T12:35:01.491Z,26.90
2022-08-11T12:37:34.173Z,26.30
2022-08-11T12:40:43.475Z,25.70
2022-08-11T12:43:39.651Z,26.40
2022-08-11T12:46:15.497Z,26.40
2022-08-11T12:49:05.270Z,26.90
2022-08-11T12:52:13.399Z,26.80
2022-08-11T12:54:57.372Z,25.10
2022-08-11T12:57:50.180Z,25.80
2022-08-11T13:00:37.768Z,25.40
2022-08-11T13:03:27.609Z,26.20
2022-08-11T13:05:59.927Z,26.40
2022-08-11T13:08:30.745Z,25.90
2022-08-11T13:11:20.191Z,26.00
2022-08-11T13:13:57.209Z,25.80
2022-08-11T13:16:30.517Z,25.70
2022-08-11T13:19:01.348Z,25.90
2022-08-11T13:21:30.636Z,26.70
2022-08-11T13:24:02.755Z,26.20
2022-08-11T13:26:47.829Z,26.40
2022-08-11T13:29:24.492Z,26.20
2022-08-11T13:31:54.802Z,25.70
2022-08-11T13:34:24.533Z,27.80
2022-08-11T13:36:57.229Z,25.90
2022-08-11T13:39:28.390Z,27.10
2022-08-11T13:42:00.433Z,26.60
2022-08-11T13:44:32.126Z,26.40
2022-08-11T13:47:04.117Z,25.90
2022-08-11T13:49:33.638Z,26.60
2022-08-11T13:52:02.683Z,26.90
2022-08-11T13:54:33.709Z,25.80
2022-08-11T13:57:08.121Z,26.30
2022-08-11T13:59:49.978Z,26.10
2022-08-11T14:02:30.278Z,26.30
2022-08-11T14:05:04.890Z,25.00
2022-08-11T14:07:40.411Z,26.40
2022-08-11T14:10:11.298Z,25.80
2022-08-11T14:13:01.883Z,25.80
2022-08-11T14:15:35.422Z,26.20
2022-08-11T14:18:07.645Z,25.20
2022-08-11T14:20:59.786Z,25.70
2022-08-11T14:23:30.876Z,26.50
2022-08-11T14:26:13.646Z,26.40
2022-08-11T14:28:45.340Z,26.50
2022-08-11T14:31:16.056Z,27.20
2022-08-11T14:34:00.481Z,27.60
2022-08-11T14:36:34.174Z,27.10
2022-08-11T14:39:07.446Z,26.80
2022-08-11T14:42:11.801Z,26.60
2022-08-11T14:45:03.273Z,26.40
2022-08-11T14:47:35.052Z,26.60
2022-08-11T14:50:09.969Z,26.70
2022-08-11T14:52:48.865Z,26.80
2022-08-11T14:55:35.647Z,27.20
2022-08-11T14:58:04.737Z,26.70
2022-08-11T15:00:36.045Z,26.40
2022-08-11T15:03:12.111Z,26.70
2022-08-11T15:05:56.352Z,27.40
2022-08-11T15:08:46.601Z,27.40
2022-08-11T15:11:35.247Z,28.50
2022-08-11T15:14:07.502Z,26.30
2022-08-11T15:16:56.788Z,27.50
2022-08-11T15:19:37.528Z,26.50
2022-08-11T15:22:28.836Z,26.70
2022-08-11T15:24:59.535Z,26.90
2022-08-11T15:27:49.474Z,27.10
2022-08-11T15:30:36.139Z,27.30
2022-08-11T15:33:30.453Z,26.60
2022-08-11T15:36:16.573Z,27.10
2022-08-11T15:38:57.118Z,27.00
2022-08-11T15:41:54.310Z,27.40
2022-08-11T15:45:03.621Z,27.20
2022-08-11T15:47:41.622Z,27.90
2022-08-11T15:50:16.861Z,26.40
2022-08-11T15:52:54.418Z,27.20
2022-08-11T15:55:24.646Z,27.20
2022-08-11T15:58:12.769Z,28.30
2022-08-11T16:00:59.005Z,28.80
2022-08-11T16:04:07.618Z,27.80
2022-08-11T16:06:49.311Z,27.30
2022-08-11T16:09:25.106Z,29.20
2022-08-11T16:11:59.998Z,27.70
2022-08-11T16:14:46.587Z,28.30
2022-08-11T16:17:17.530Z,28.50
2022-08-11T16:19:48.068Z,28.70
2022-08-11T16:22:34.270Z,28.80
2022-08-11T16:27:01.359Z,27.50
2022-08-11T16:27:57.227Z,27.70
2022-08-11T16:30:26.276Z,28.60
2022-08-11T16:32:55.896Z,28.60
2022-08-11T16:35:44.068Z,29.10
2022-08-11T16:38:35.198Z,29.90
2022-08-11T16:41:11.407Z,29.20
2022-08-11T16:44:02.523Z,29.40
2022-08-11T16:46:49.669Z,28.80
2022-08-11T16:49:23.319Z,28.70
2022-08-11T16:51:51.927Z,29.00
2022-08-11T16:54:22.162Z,29.70
2022-08-11T16:56:56.105Z,29.00
2022-08-11T16:59:31.146Z,28.60
2022-08-11T17:02:04.357Z,29.50
2022-08-11T17:05:09.458Z,29.20
2022-08-11T17:08:01.306Z,29.60
2022-08-11T17:11:00.162Z,28.80
2022-08-11T17:13:39.699Z,29.70
2022-08-11T17:16:13.130Z,31.10
2022-08-11T17:18:55.910Z,29.80
2022-08-11T17:21:29.918Z,30.30
2022-08-11T17:24:06.402Z,30.20
2022-08-11T17:26:55.784Z,30.00
2022-08-11T17:29:28.827Z,28.50
2022-08-11T17:32:20.913Z,29.60
2022-08-11T17:35:08.837Z,29.80
2022-08-11T17:37:40.079Z,30.40
2022-08-11T17:40:13.355Z,30.30
2022-08-11T17:43:03.692Z,30.40
2022-08-11T17:45:50.357Z,30.70
2022-08-11T17:48:28.596Z,30.60
2022-08-11T17:51:00.293Z,30.30
2022-08-11T17:54:10.119Z,31.00
2022-08-11T17:56:55.886Z,33.40
2022-08-11T17:59:43.875Z,31.50
2022-08-11T18:02:37.312Z,32.90
2022-08-11T18:05:10.821Z,35.00
2022-08-11T18:08:00.446Z,35.90
2022-08-11T18:10:49.765Z,32.60
2022-08-11T18:13:38.677Z,31.80
2022-08-11T18:16:26.824Z,34.70
2022-08-11T18:19:13.464Z,33.90
2022-08-11T18:22:15.431Z,33.50
2022-08-11T18:25:09.158Z,34.10
2022-08-11T18:27:57.278Z,34.20
2022-08-11T18:30:44.243Z,33.80
2022-08-11T18:33:56.869Z,33.80
2022-08-11T18:36:42.859Z,34.10
2022-08-11T18:39:31.627Z,36.10
2022-08-11T18:42:29.260Z,34.90
2022-08-11T18:45:19.020Z,34.80
2022-08-11T18:48:11.495Z,35.00
2022-08-11T18:51:29.959Z,35.60
2022-08-11T18:54:12.262Z,38.40
2022-08-11T18:56:58.191Z,39.90
2022-08-11T18:59:46.339Z,40.90
2022-08-11T19:02:33.826Z,42.50
2022-08-11T19:06:32.060Z,41.90
2022-08-11T19:08:49.299Z,40.30
2022-08-11T19:11:42.425Z,40.30
2022-08-11T19:14:31.165Z,40.30
2022-08-11T19:17:43.911Z,40.70
2022-08-11T19:20:29.442Z,40.60
2022-08-11T19:23:16.841Z,40.80
2022-08-11T19:26:05.496Z,41.10
2022-08-11T19:28:54.092Z,41.20
2022-08-11T19:31:44.310Z,42.10
2022-08-11T19:34:32.967Z,42.00
2022-08-11T19:37:23.703Z,42.40
2022-08-11T19:40:12.152Z,42.60
2022-08-11T19:43:00.902Z,43.00
2022-08-11T19:45:52.737Z,44.00
2022-08-11T19:48:40.163Z,42.80
2022-08-11T19:51:28.272Z,50.90
2022-08-11T19:54:15.344Z,47.70
2022-08-11T19:57:03.176Z,47.60
2022-08-11T19:59:52.418Z,52.30
2022-08-11T20:02:38.464Z,54.90
2022-08-11T20:05:26.317Z,51.80
2022-08-11T20:08:15.178Z,51.30
2022-08-11T20:11:03.441Z,48.70
2022-08-11T20:13:49.960Z,55.00
2022-08-11T20:16:39.366Z,57.50
2022-08-11T20:19:55.600Z,58.20
2022-08-11T20:22:35.013Z,51.70
2022-08-11T20:25:24.685Z,52.80
2022-08-11T20:28:12.028Z,53.80
2022-08-11T20:30:59.443Z,55.00
2022-08-11T20:33:46.367Z,54.20
2022-08-11T20:36:32.804Z,55.50
2022-08-11T20:39:19.683Z,54.80
2022-08-11T20:42:07.450Z,55.70
2022-08-11T20:44:56.348Z,55.70
2022-08-11T20:47:58.961Z,55.20
2022-08-11T20:50:49.097Z,56.80
2022-08-11T20:53:39.188Z,58.80
2022-08-11T20:56:28.956Z,59.70
2022-08-11T20:59:18.814Z,57.70
2022-08-11T21:02:10.042Z,59.00
2022-08-11T21:04:57.905Z,59.50
2022-08-11T21:07:56.937Z,60.00
2022-08-11T21:10:51.549Z,60.10
2022-08-11T21:13:41.113Z,59.70
2022-08-11T21:16:32.141Z,60.40
2022-08-11T21:20:00.361Z,59.60
2022-08-11T21:22:43.341Z,59.20
2022-08-11T21:25:48.429Z,59.40
2022-08-11T21:28:37.434Z,60.30
2022-08-11T21:31:24.456Z,61.50
2022-08-11T21:34:11.444Z,61.50
2022-08-11T21:36:58.950Z,61.40
2022-08-11T21:39:46.424Z,61.40
2022-08-11T21:42:34.545Z,60.60
2022-08-11T21:45:21.429Z,60.80
2022-08-11T21:48:07.743Z,60.00
2022-08-11T21:50:53.448Z,57.90
2022-08-11T21:53:40.016Z,56.30
2022-08-11T21:56:27.351Z,54.50
2022-08-11T21:59:16.688Z,53.90
2022-08-11T22:02:03.536Z,53.00
2022-08-11T22:04:50.814Z,52.10
2022-08-11T22:07:40.740Z,51.50
2022-08-11T22:10:40.461Z,51.60
2022-08-11T22:13:30.814Z,51.70
2022-08-11T22:16:18.628Z,51.30
2022-08-11T22:19:06.185Z,51.10
2022-08-11T22:22:00.997Z,51.10
2022-08-11T22:24:51.869Z,50.10
2022-08-11T22:27:37.684Z,49.80
2022-08-11T22:30:26.325Z,49.90
2022-08-11T22:33:16.867Z,50.20
2022-08-11T22:36:04.851Z,51.60
2022-08-11T22:38:53.022Z,52.20
2022-08-11T22:41:40.939Z,51.60
2022-08-11T22:44:26.891Z,52.90
2022-08-11T22:47:18.345Z,53.70
2022-08-11T22:50:10.945Z,53.20
2022-08-11T22:52:57.007Z,55.50
2022-08-11T22:55:43.469Z,55.30
2022-08-11T22:58:30.066Z,55.40
2022-08-11T23:01:17.133Z,55.20
2022-08-11T23:04:04.921Z,54.60
2022-08-11T23:06:53.828Z,54.20
2022-08-11T23:09:42.080Z,54.80
2022-08-11T23:12:28.434Z,54.30
2022-08-11T23:15:14.739Z,54.50
2022-08-11T23:18:00.941Z,56.60
2022-08-11T23:20:47.430Z,55.60
2022-08-11T23:23:36.594Z,55.30
2022-08-11T23:26:22.676Z,56.40
2022-08-11T23:29:08.666Z,55.70
2022-08-11T23:31:56.142Z,53.50
2022-08-11T23:35:04.190Z,53.30
2022-08-11T23:37:52.725Z,54.70
2022-08-11T23:40:39.985Z,55.40
2022-08-11T23:43:26.541Z,56.10
2022-08-11T23:46:12.117Z,58.90
2022-08-11T23:48:58.958Z,58.10
2022-08-11T23:51:46.915Z,59.30
2022-08-11T23:54:37.303Z,59.00
2022-08-11T23:57:25.187Z,59.50
